createdAt,value
2023-05-03T00:01:39.706Z,12.10
2023-05-03T00:04:08.705Z,12.09
2023-05-03T00:06:37.119Z,12.06
2023-05-03T00:09:05.439Z,11.98
2023-05-03T00:11:34.454Z,11.88
2023-05-03T00:14:02.817Z,11.79
2023-05-03T00:16:31.161Z,11.75
2023-05-03T00:19:00.407Z,11.70
2023-05-03T00:21:28.577Z,11.65
2023-05-03T00:23:56.966Z,11.55
2023-05-03T00:26:26.680Z,11.49
2023-05-03T00:28:54.969Z,11.43
2023-05-03T00:31:23.434Z,11.39
2023-05-03T00:33:52.145Z,11.36
2023-05-03T00:36:20.747Z,11.31
2023-05-03T00:38:48.891Z,11.24
2023-05-03T00:41:17.402Z,11.18
2023-05-03T00:43:45.683Z,11.12
2023-05-03T00:46:17.384Z,11.04
2023-05-03T00:48:49.533Z,10.94
2023-05-03T00:51:21.902Z,10.87
2023-05-03T00:53:51.703Z,10.80
2023-05-03T00:56:23.888Z,10.73
2023-05-03T00:58:52.747Z,10.66
2023-05-03T01:01:21.606Z,10.60
2023-05-03T01:03:50.903Z,10.54
2023-05-03T01:06:37.329Z,10.49
2023-05-03T01:09:21.837Z,10.42
2023-05-03T01:12:05.256Z,10.38
2023-05-03T01:14:46.855Z,10.32
2023-05-03T01:17:16.168Z,10.31
2023-05-03T01:19:49.238Z,10.30
2023-05-03T01:22:24.991Z,10.29
2023-05-03T01:25:10.601Z,10.27
2023-05-03T01:27:41.698Z,10.24
2023-05-03T01:30:12.872Z,10.20
2023-05-03T01:33:26.026Z,10.15
2023-05-03T01:36:02.536Z,10.08
2023-05-03T01:38:35.835Z,10.03
2023-05-03T01:41:11.906Z,10.00
2023-05-03T01:43:40.993Z,9.97
2023-05-03T01:46:09.543Z,9.92
2023-05-03T01:48:38.270Z,9.85
2023-05-03T01:51:06.892Z,9.81
2023-05-03T01:53:35.345Z,9.78
2023-05-03T01:56:03.735Z,9.74
2023-05-03T01:58:32.424Z,9.68
2023-05-03T02:01:00.939Z,9.65
2023-05-03T02:03:30.525Z,9.61
2023-05-03T02:05:59.008Z,9.58
2023-05-03T02:08:27.822Z,9.52
2023-05-03T02:10:56.273Z,9.47
2023-05-03T02:13:24.573Z,9.42
2023-05-03T02:15:53.056Z,9.36
2023-05-03T02:18:22.572Z,9.31
2023-05-03T02:20:50.807Z,9.24
2023-05-03T02:23:24.614Z,9.17
2023-05-03T02:25:55.533Z,9.05
2023-05-03T02:28:23.781Z,8.95
2023-05-03T02:30:52.415Z,8.88
2023-05-03T02:33:20.753Z,8.83
2023-05-03T02:35:49.158Z,8.77
2023-05-03T02:38:18.136Z,8.76
2023-05-03T02:40:46.314Z,8.75
2023-05-03T02:43:14.493Z,8.70
2023-05-03T02:45:44.284Z,8.67
2023-05-03T02:48:13.140Z,8.66
2023-05-03T02:50:42.616Z,8.64
2023-05-03T02:53:11.823Z,8.60
2023-05-03T02:55:41.532Z,8.57
2023-05-03T02:58:10.430Z,8.53
2023-05-03T03:00:39.022Z,8.50
2023-05-03T03:03:07.660Z,8.46
2023-05-03T03:05:36.196Z,8.44
2023-05-03T03:08:05.281Z,8.39
2023-05-03T03:10:33.692Z,8.34
2023-05-03T03:13:02.396Z,8.32
2023-05-03T03:15:34.230Z,8.31
2023-05-03T03:18:03.217Z,8.25
2023-05-03T03:20:31.829Z,8.24
2023-05-03T03:23:03.192Z,8.25
2023-05-03T03:25:31.873Z,8.28
2023-05-03T03:28:00.969Z,8.32
2023-05-03T03:30:30.591Z,8.34
2023-05-03T03:33:06.686Z,8.38
2023-05-03T03:35:38.890Z,8.43
2023-05-03T03:38:07.926Z,8.46
2023-05-03T03:40:37.643Z,8.50
2023-05-03T03:43:06.960Z,8.52
2023-05-03T03:45:36.869Z,8.50
2023-05-03T03:48:07.036Z,8.48
2023-05-03T03:50:35.572Z,8.48
2023-05-03T03:53:04.872Z,8.51
2023-05-03T03:55:33.555Z,8.55
2023-05-03T03:58:02.157Z,8.60
2023-05-03T04:00:31.060Z,8.66
2023-05-03T04:03:07.876Z,8.73
2023-05-03T04:05:36.649Z,8.81
2023-05-03T04:08:06.376Z,8.87
2023-05-03T04:10:35.745Z,8.90
2023-05-03T04:13:04.226Z,8.93
2023-05-03T04:15:32.452Z,8.94
2023-05-03T04:18:01.991Z,8.95
2023-05-03T04:20:30.306Z,9.00
2023-05-03T04:23:00.467Z,9.09
2023-05-03T04:25:33.578Z,9.20
2023-05-03T04:28:07.033Z,9.31
2023-05-03T04:30:36.748Z,9.36
2023-05-03T04:33:05.301Z,9.41
2023-05-03T04:35:36.358Z,9.51
2023-05-03T04:38:09.987Z,9.60
2023-05-03T04:40:38.495Z,9.68
2023-05-03T04:43:09.398Z,9.74
2023-05-03T04:45:41.205Z,9.77
2023-05-03T04:48:11.807Z,9.80
2023-05-03T04:50:40.288Z,9.82
2023-05-03T04:53:09.903Z,9.83
2023-05-03T04:55:40.720Z,9.85
2023-05-03T04:58:09.415Z,9.89
2023-05-03T05:00:38.195Z,9.93
2023-05-03T05:03:11.174Z,9.98
2023-05-03T05:05:40.002Z,10.01
2023-05-03T05:08:09.421Z,10.09
2023-05-03T05:10:44.145Z,10.14
2023-05-03T05:13:16.215Z,10.17
2023-05-03T05:15:45.115Z,10.20
2023-05-03T05:18:14.430Z,10.22
2023-05-03T05:20:43.408Z,10.28
2023-05-03T05:23:12.824Z,10.33
2023-05-03T05:25:43.359Z,10.41
2023-05-03T05:28:11.716Z,10.51
2023-05-03T05:30:41.660Z,10.61
2023-05-03T05:33:10.717Z,10.74
2023-05-03T05:35:39.146Z,10.85
2023-05-03T05:38:07.745Z,10.94
2023-05-03T05:40:36.688Z,11.05
2023-05-03T05:43:05.762Z,11.15
2023-05-03T05:45:36.228Z,11.26
2023-05-03T05:48:06.087Z,11.36
2023-05-03T05:50:34.781Z,11.48
2023-05-03T05:53:09.188Z,11.61
2023-05-03T05:55:39.540Z,11.72
2023-05-03T05:58:17.528Z,11.80
2023-05-03T06:00:52.260Z,11.90
2023-05-03T06:03:20.595Z,12.00
2023-05-03T06:05:51.089Z,12.10
2023-05-03T06:08:19.264Z,12.19
2023-05-03T06:10:47.809Z,12.28
2023-05-03T06:13:16.241Z,12.37
2023-05-03T06:15:46.261Z,12.47
2023-05-03T06:18:14.811Z,12.58
2023-05-03T06:20:43.224Z,12.71
2023-05-03T06:23:11.818Z,12.85
2023-05-03T06:25:39.924Z,12.94
2023-05-03T06:28:08.991Z,13.05
2023-05-03T06:30:38.058Z,13.17
2023-05-03T06:33:14.226Z,13.29
2023-05-03T06:35:44.177Z,13.44
2023-05-03T06:38:13.285Z,13.57
2023-05-03T06:40:41.762Z,13.67
2023-05-03T06:43:09.856Z,13.77
2023-05-03T06:46:02.524Z,13.97
2023-05-03T06:48:31.090Z,14.07
2023-05-03T06:50:59.969Z,14.17
2023-05-03T06:53:29.118Z,14.28
2023-05-03T06:55:57.748Z,14.40
2023-05-03T06:58:26.444Z,14.52
2023-05-03T07:00:54.731Z,14.63
2023-05-03T07:03:24.267Z,14.77
2023-05-03T07:05:52.731Z,14.89
2023-05-03T07:08:21.019Z,15.02
2023-05-03T07:10:49.283Z,15.14
2023-05-03T07:13:17.482Z,15.24
2023-05-03T07:15:46.236Z,15.35
2023-05-03T07:18:15.031Z,15.48
2023-05-03T07:20:43.442Z,15.61
2023-05-03T07:23:11.643Z,15.75
2023-05-03T07:25:39.900Z,15.89
2023-05-03T07:28:08.500Z,16.01
2023-05-03T07:30:36.797Z,16.12
2023-05-03T07:33:05.560Z,16.25
2023-05-03T07:35:33.961Z,16.36
2023-05-03T07:38:03.056Z,16.48
2023-05-03T07:40:33.476Z,16.62
2023-05-03T07:43:01.869Z,16.75
2023-05-03T07:45:30.377Z,16.92
2023-05-03T07:47:58.815Z,17.04
2023-05-03T07:50:27.389Z,17.18
2023-05-03T07:52:56.696Z,17.34
2023-05-03T07:55:29.461Z,17.44
2023-05-03T07:57:59.602Z,17.59
2023-05-03T08:00:28.360Z,17.74
2023-05-03T08:02:57.054Z,17.84
2023-05-03T08:05:25.507Z,17.95
2023-05-03T08:07:53.881Z,18.08
2023-05-03T08:10:22.199Z,18.23
2023-05-03T08:12:51.424Z,18.36
2023-05-03T08:15:19.992Z,18.49
2023-05-03T08:17:48.841Z,18.60
2023-05-03T08:20:17.063Z,18.71
2023-05-03T08:22:46.738Z,18.84
2023-05-03T08:25:17.938Z,18.88
2023-05-03T08:27:46.711Z,18.95
2023-05-03T08:30:15.798Z,19.07
2023-05-03T08:32:44.129Z,19.20
2023-05-03T08:35:14.120Z,19.31
2023-05-03T08:37:43.461Z,19.45
2023-05-03T08:40:15.803Z,19.55
2023-05-03T08:42:46.501Z,19.70
2023-05-03T08:45:16.575Z,19.83
2023-05-03T08:47:45.769Z,19.94
2023-05-03T08:50:15.874Z,20.12
2023-05-03T08:52:44.786Z,20.27
2023-05-03T08:55:14.181Z,20.48
2023-05-03T08:57:42.849Z,20.70
2023-05-03T09:00:13.190Z,20.87
2023-05-03T09:02:42.225Z,21.00
2023-05-03T09:05:16.661Z,21.11
2023-05-03T09:08:06.187Z,21.25
2023-05-03T09:10:38.276Z,21.38
2023-05-03T09:13:07.902Z,21.48
2023-05-03T09:15:37.415Z,21.64
2023-05-03T09:18:19.747Z,21.85
2023-05-03T09:20:52.850Z,22.21
2023-05-03T09:23:27.126Z,22.51
2023-05-03T09:25:56.151Z,22.85
2023-05-03T09:28:25.746Z,23.22
2023-05-03T09:31:11.431Z,23.61
2023-05-03T09:33:41.514Z,24.06
2023-05-03T09:36:11.228Z,24.40
2023-05-03T09:38:39.720Z,24.75
2023-05-03T09:41:28.261Z,25.10
2023-05-03T09:44:02.812Z,25.39
2023-05-03T09:46:33.469Z,25.67
2023-05-03T09:49:02.315Z,26.01
2023-05-03T09:51:34.177Z,26.41
2023-05-03T09:54:03.765Z,26.69
2023-05-03T09:56:32.472Z,26.89
2023-05-03T09:59:01.275Z,27.09
2023-05-03T10:01:29.698Z,27.50
2023-05-03T10:04:00.443Z,27.71
2023-05-03T10:06:38.530Z,27.97
2023-05-03T10:09:16.739Z,28.10
2023-05-03T10:11:49.798Z,28.36
2023-05-03T10:14:17.987Z,28.62
2023-05-03T10:16:50.518Z,28.69
2023-05-03T10:19:29.593Z,28.78
2023-05-03T10:22:07.867Z,29.02
2023-05-03T10:24:38.372Z,29.23
2023-05-03T10:27:12.348Z,29.39
2023-05-03T10:29:49.303Z,29.69
2023-05-03T10:32:35.795Z,30.02
2023-05-03T10:35:09.420Z,30.37
2023-05-03T10:37:40.475Z,30.68
2023-05-03T10:40:14.123Z,31.09
2023-05-03T10:42:49.989Z,31.41
2023-05-03T10:45:26.929Z,31.37
2023-05-03T10:48:16.692Z,31.40
2023-05-03T10:50:45.366Z,31.84
2023-05-03T10:53:35.480Z,32.26
2023-05-03T10:56:09.261Z,32.66
2023-05-03T10:58:42.982Z,33.06
2023-05-03T11:01:13.554Z,33.05
2023-05-03T11:04:01.526Z,33.19
2023-05-03T11:06:34.986Z,33.42
2023-05-03T11:09:08.018Z,33.38
2023-05-03T11:11:39.525Z,33.55
2023-05-03T11:14:09.570Z,33.50
2023-05-03T11:16:47.818Z,33.49
2023-05-03T11:19:17.386Z,33.58
2023-05-03T11:21:46.521Z,33.82
2023-05-03T11:24:16.558Z,34.15
2023-05-03T11:26:44.923Z,34.46
2023-05-03T11:29:14.574Z,34.68
2023-05-03T11:31:43.775Z,34.67
2023-05-03T11:34:13.383Z,34.56
2023-05-03T11:36:42.982Z,34.41
2023-05-03T11:39:14.709Z,34.51
2023-05-03T11:41:42.911Z,34.57
2023-05-03T11:44:17.307Z,34.65
2023-05-03T11:46:48.209Z,34.27
2023-05-03T11:49:19.306Z,34.18
2023-05-03T11:51:51.680Z,34.08
2023-05-03T11:54:26.867Z,34.00
2023-05-03T11:56:59.214Z,34.06
2023-05-03T11:59:39.069Z,34.26
2023-05-03T12:02:10.210Z,34.50
2023-05-03T12:04:43.724Z,34.54
2023-05-03T12:07:15.250Z,34.40
2023-05-03T12:09:55.299Z,34.17
2023-05-03T12:15:07.706Z,33.70
2023-05-03T12:17:39.642Z,33.47
2023-05-03T12:22:58.077Z,33.21
2023-05-03T12:25:29.139Z,33.25
2023-05-03T12:28:17.758Z,33.40
2023-05-03T12:30:48.823Z,33.32
2023-05-03T12:33:21.972Z,33.35
2023-05-03T12:35:54.566Z,33.70
2023-05-03T12:38:29.128Z,33.94
2023-05-03T12:41:00.069Z,33.98
2023-05-03T12:43:31.473Z,34.05
2023-05-03T12:46:29.009Z,34.02
2023-05-03T12:48:54.142Z,33.92
2023-05-03T12:51:26.094Z,33.47
2023-05-03T12:53:55.640Z,32.85
2023-05-03T12:56:25.554Z,32.43
2023-05-03T13:04:17.013Z,32.19
2023-05-03T13:06:47.038Z,32.55
2023-05-03T13:12:06.406Z,32.46
2023-05-03T13:14:34.908Z,32.35
2023-05-03T13:17:03.401Z,32.80
2023-05-03T13:19:31.798Z,33.29
2023-05-03T13:22:00.028Z,33.56
2023-05-03T13:24:28.449Z,33.67
2023-05-03T13:26:56.827Z,33.29
2023-05-03T13:29:25.230Z,32.79
2023-05-03T13:31:53.827Z,32.65
2023-05-03T13:34:22.101Z,32.31
2023-05-03T13:36:50.985Z,32.13
2023-05-03T13:39:19.362Z,31.90
2023-05-03T13:41:48.185Z,31.56
2023-05-03T13:44:16.845Z,31.35
2023-05-03T13:46:46.101Z,31.39
2023-05-03T13:49:14.418Z,31.92
2023-05-03T13:51:42.885Z,32.27
2023-05-03T13:54:11.307Z,32.66
2023-05-03T13:56:41.335Z,33.31
2023-05-03T13:59:16.568Z,33.75
2023-05-03T14:01:44.700Z,34.14
2023-05-03T14:04:13.029Z,34.49
2023-05-03T14:06:42.031Z,34.02
2023-05-03T14:09:11.057Z,33.04
2023-05-03T14:11:40.662Z,32.23
2023-05-03T14:14:08.951Z,31.69
2023-05-03T14:16:41.650Z,31.24
2023-05-03T14:19:11.697Z,31.13
2023-05-03T14:21:43.044Z,31.30
2023-05-03T14:24:12.600Z,31.15
2023-05-03T14:26:41.391Z,30.61
2023-05-03T14:29:09.699Z,29.94
2023-05-03T14:31:38.336Z,29.50
2023-05-03T14:34:07.211Z,29.22
2023-05-03T14:36:38.916Z,28.92
2023-05-03T14:39:10.869Z,28.43
2023-05-03T14:41:39.274Z,28.03
2023-05-03T14:44:07.724Z,27.80
2023-05-03T14:46:36.288Z,27.84
2023-05-03T14:49:05.368Z,28.09
2023-05-03T14:51:33.963Z,28.41
2023-05-03T14:54:02.232Z,28.62
2023-05-03T14:56:32.640Z,29.06
2023-05-03T14:59:01.880Z,29.17
2023-05-03T15:01:30.162Z,29.68
2023-05-03T15:03:58.424Z,30.49
2023-05-03T15:06:31.420Z,30.87
2023-05-03T15:08:59.785Z,31.03
2023-05-03T15:11:28.496Z,31.27
2023-05-03T15:13:57.008Z,31.16
2023-05-03T15:16:25.573Z,30.89
2023-05-03T15:18:54.044Z,30.47
2023-05-03T15:21:22.636Z,30.07
2023-05-03T15:23:52.031Z,29.86
2023-05-03T15:26:22.458Z,29.73
2023-05-03T15:28:52.182Z,29.62
2023-05-03T15:31:20.817Z,29.40
2023-05-03T15:33:49.360Z,29.12
2023-05-03T15:36:17.848Z,28.89
2023-05-03T15:38:47.049Z,28.85
2023-05-03T15:41:15.548Z,28.76
2023-05-03T15:43:46.247Z,28.60
2023-05-03T15:46:14.917Z,28.23
2023-05-03T15:48:43.452Z,27.88
2023-05-03T15:51:11.532Z,27.58
2023-05-03T15:53:41.258Z,27.33
2023-05-03T15:56:09.529Z,27.00
2023-05-03T15:58:38.550Z,26.71
2023-05-03T16:01:06.775Z,26.55
2023-05-03T16:03:35.108Z,26.34
2023-05-03T16:06:08.735Z,26.09
2023-05-03T16:08:37.291Z,25.73
2023-05-03T16:11:05.670Z,25.45
2023-05-03T16:13:33.912Z,25.18
2023-05-03T16:16:03.541Z,25.05
2023-05-03T16:18:32.878Z,24.93
2023-05-03T16:21:02.337Z,24.69
2023-05-03T16:23:30.667Z,24.37
2023-05-03T16:25:59.161Z,24.14
2023-05-03T16:28:27.335Z,23.88
2023-05-03T16:30:56.027Z,23.65
2023-05-03T16:33:24.724Z,23.51
2023-05-03T16:35:53.204Z,23.38
2023-05-03T16:38:21.798Z,23.18
2023-05-03T16:40:50.172Z,22.98
2023-05-03T16:43:18.551Z,22.85
2023-05-03T16:46:03.995Z,22.72
2023-05-03T16:48:33.605Z,22.57
2023-05-03T16:51:02.535Z,22.39
2023-05-03T16:53:31.604Z,22.22
2023-05-03T16:56:01.172Z,22.06
2023-05-03T16:58:29.559Z,21.89
2023-05-03T17:00:58.116Z,21.67
2023-05-03T17:03:26.738Z,21.47
2023-05-03T17:05:56.142Z,21.35
2023-05-03T17:08:24.517Z,21.20
2023-05-03T17:10:54.734Z,21.00
2023-05-03T17:13:23.259Z,20.83
2023-05-03T17:15:51.824Z,20.67
2023-05-03T17:18:20.196Z,20.54
2023-05-03T17:20:48.687Z,20.46
2023-05-03T17:23:18.718Z,20.40
2023-05-03T17:25:48.736Z,20.28
2023-05-03T17:28:16.897Z,20.21
2023-05-03T17:30:45.598Z,20.13
2023-05-03T17:33:14.378Z,20.02
2023-05-03T17:35:44.207Z,19.90
2023-05-03T17:38:12.598Z,19.80
2023-05-03T17:40:43.357Z,19.74
2023-05-03T17:43:12.483Z,19.68
2023-05-03T17:45:44.684Z,19.63
2023-05-03T17:48:13.392Z,19.56
2023-05-03T17:50:43.320Z,19.48
2023-05-03T17:53:11.796Z,19.40
2023-05-03T17:55:40.410Z,19.33
2023-05-03T17:58:09.695Z,19.28
2023-05-03T18:00:39.525Z,19.25
2023-05-03T18:03:08.338Z,19.21
2023-05-03T18:05:37.436Z,19.19
2023-05-03T18:08:06.391Z,19.16
2023-05-03T18:10:34.991Z,19.10
2023-05-03T18:13:04.721Z,19.01
2023-05-03T18:15:33.198Z,18.97
2023-05-03T18:18:02.691Z,18.92
2023-05-03T18:20:31.293Z,18.88
2023-05-03T18:23:02.764Z,18.82
2023-05-03T18:25:31.638Z,18.74
2023-05-03T18:28:00.705Z,18.66
2023-05-03T18:30:29.498Z,18.57
2023-05-03T18:32:57.943Z,18.54
2023-05-03T18:35:26.450Z,18.51
2023-05-03T18:37:55.204Z,18.42
2023-05-03T18:40:25.021Z,18.34
2023-05-03T18:42:53.510Z,18.27
2023-05-03T18:45:22.112Z,18.20
2023-05-03T18:47:51.266Z,18.13
2023-05-03T18:50:20.104Z,18.08
2023-05-03T18:52:50.769Z,18.06
2023-05-03T18:55:19.233Z,18.02
2023-05-03T18:57:47.754Z,17.97
2023-05-03T19:00:19.888Z,17.93
2023-05-03T19:02:48.465Z,17.88
2023-05-03T19:05:16.989Z,17.83
2023-05-03T19:07:48.331Z,17.80
2023-05-03T19:10:20.071Z,17.79
2023-05-03T19:12:48.608Z,17.78
2023-05-03T19:15:16.952Z,17.75
2023-05-03T19:17:46.883Z,17.73
2023-05-03T19:20:15.734Z,17.71
2023-05-03T19:22:43.946Z,17.68
2023-05-03T19:25:12.343Z,17.67
2023-05-03T19:27:40.768Z,17.68
2023-05-03T19:30:09.849Z,17.67
2023-05-03T19:32:39.494Z,17.65
2023-05-03T19:35:08.930Z,17.62
2023-05-03T19:37:37.774Z,17.58
2023-05-03T19:40:07.358Z,17.55
2023-05-03T19:42:35.732Z,17.53
2023-05-03T19:45:04.918Z,17.51
2023-05-03T19:47:33.349Z,17.48
2023-05-03T19:50:02.248Z,17.46
2023-05-03T19:52:31.725Z,17.42
2023-05-03T19:55:00.130Z,17.38
2023-05-03T19:57:28.480Z,17.30
2023-05-03T19:59:56.665Z,17.25
2023-05-03T20:02:25.261Z,17.20
2023-05-03T20:04:53.634Z,17.14
2023-05-03T20:07:21.916Z,17.06
2023-05-03T20:09:50.416Z,16.98
2023-05-03T20:12:18.940Z,16.93
2023-05-03T20:14:47.176Z,16.88
2023-05-03T20:17:16.463Z,16.84
2023-05-03T20:19:44.633Z,16.78
2023-05-03T20:22:12.944Z,16.73
2023-05-03T20:24:41.019Z,16.66
2023-05-03T20:27:09.609Z,16.60
2023-05-03T20:29:38.196Z,16.55
2023-05-03T20:32:06.773Z,16.50
2023-05-03T20:34:36.001Z,16.45
2023-05-03T20:37:04.903Z,16.39
2023-05-03T20:39:35.431Z,16.28
2023-05-03T20:42:03.805Z,16.19
2023-05-03T20:44:31.888Z,16.13
2023-05-03T20:47:00.674Z,16.05
2023-05-03T20:49:30.505Z,15.91
2023-05-03T20:51:59.289Z,15.80
2023-05-03T20:54:27.568Z,15.69
2023-05-03T20:56:56.332Z,15.62
2023-05-03T20:59:24.904Z,15.58
2023-05-03T21:01:53.537Z,15.52
2023-05-03T21:04:23.047Z,15.50
2023-05-03T21:06:51.437Z,15.49
2023-05-03T21:09:20.227Z,15.47
2023-05-03T21:11:48.663Z,15.47
2023-05-03T21:14:18.728Z,15.49
2023-05-03T21:16:46.941Z,15.49
2023-05-03T21:19:15.413Z,15.48
2023-05-03T21:21:43.619Z,15.47
2023-05-03T21:24:12.186Z,15.46
2023-05-03T21:26:40.472Z,15.44
2023-05-03T21:29:09.324Z,15.42
2023-05-03T21:31:39.346Z,15.39
2023-05-03T21:34:07.857Z,15.33
2023-05-03T21:36:36.240Z,15.30
2023-05-03T21:39:05.259Z,15.27
2023-05-03T21:41:33.536Z,15.23
2023-05-03T21:44:01.810Z,15.18
2023-05-03T21:46:30.333Z,15.15
2023-05-03T21:48:58.888Z,15.12
2023-05-03T21:51:27.501Z,15.07
2023-05-03T21:53:55.955Z,14.98
2023-05-03T21:56:24.644Z,14.92
2023-05-03T21:58:52.933Z,14.86
2023-05-03T22:01:21.979Z,14.80
2023-05-03T22:03:50.536Z,14.74
2023-05-03T22:06:19.312Z,14.70
2023-05-03T22:08:48.002Z,14.66
2023-05-03T22:11:16.522Z,14.62
2023-05-03T22:14:03.120Z,14.60
2023-05-03T22:16:35.112Z,14.54
2023-05-03T22:19:04.486Z,14.51
2023-05-03T22:21:32.771Z,14.48
2023-05-03T22:24:01.510Z,14.45
2023-05-03T22:26:30.021Z,14.43
2023-05-03T22:28:58.210Z,14.42
2023-05-03T22:31:27.793Z,14.39
2023-05-03T22:33:56.558Z,14.39
2023-05-03T22:36:25.307Z,14.37
2023-05-03T22:38:55.480Z,14.35
2023-05-03T22:41:23.623Z,14.33
2023-05-03T22:43:51.895Z,14.29
2023-05-03T22:46:20.761Z,14.29
2023-05-03T22:48:49.178Z,14.27
2023-05-03T22:51:17.553Z,14.24
2023-05-03T22:53:45.943Z,14.23
2023-05-03T22:56:15.887Z,14.22
2023-05-03T22:58:44.660Z,14.20
2023-05-03T23:01:13.248Z,14.17
2023-05-03T23:03:41.645Z,14.15
2023-05-03T23:06:10.424Z,14.13
2023-05-03T23:08:38.907Z,14.11
2023-05-03T23:11:10.996Z,14.09
2023-05-03T23:13:39.882Z,14.08
2023-05-03T23:16:08.908Z,14.06
2023-05-03T23:18:37.255Z,14.05
2023-05-03T23:21:05.738Z,14.03
2023-05-03T23:23:35.801Z,14.00
2023-05-03T23:26:03.965Z,13.96
2023-05-03T23:28:32.922Z,13.94
2023-05-03T23:31:04.812Z,13.90
2023-05-03T23:33:33.705Z,13.88
2023-05-03T23:36:02.202Z,13.86
2023-05-03T23:38:34.157Z,13.84
2023-05-03T23:41:05.415Z,13.82
2023-05-03T23:43:33.484Z,13.80
2023-05-03T23:46:01.920Z,13.79
2023-05-03T23:48:31.695Z,13.77
2023-05-03T23:51:00.166Z,13.76
2023-05-03T23:53:28.570Z,13.72
2023-05-03T23:55:56.946Z,13.71
2023-05-03T23:58:25.532Z,13.69
